Team logos
Guidelines for entries Team Leaderboard Add or Update a Person FAQ
Apr 2021 - Control yourself
The April challenge was chosen by Te Waka Aotearoa


Row 10 minutes at R20
Rest 5 minutes
Row 10 minutes at R20
Both reps are restricted to a stroke rate of 20 SPM

The rate restriction is R35 for Skierg.

Deduct 100 metres from your distance for every stroke per minute over 20.


Record the adjusted distance rowed for the slower of your two repetitions.
[Ten minutes of rowing only, so less than 4000m.]


The May challenge (200th CTC) will be chosen by Red Line Rowers
See C2 forum thread for details.

Most Recent EntriesAdd/Update an Entry
DateNameCatTeamResult
2021-04-10Stuart KolbeMHWTFitness Matters 2641
2021-04-10tony walpoleMHWTFitness Matters 2641
2021-04-10Shiona Balfour FMFLWTFitness Matters 2216
2021-04-10Allen HMHWTFree Spirits 2353
2021-04-10Paul Timmons FFCMLWTFirm Fitness 2461
Bold = new time; italic = updated time
Name:
Password:
Entry: metres
 
Current Leaderboard
Names in blue italics have added or updated their times within the past 24 hours.
#NameCatTeamResultPacePower
1NZ - Andy TomlinsonMTe Waka Aotearoa I 3021   1:39.3  357.4 
2Jack TrimbleMMAD I 2946   1:41.8  331.4 
3Andrew MorleyMSub 7 I 2931   1:42.4  326.4 
4Adam Jones FMMFitness Matters I 2913   1:43.0  320.4 
5Moritz BOCKMGermania I 2903   1:43.3  317.1 
6Tobias StöhrMGermania I 2878   1:44.2  309.0 
7Chris ScottMMAD I 2864   1:44.7  304.5 
8Keith DarbymRed Line Rowers I 2858   1:45.0  302.6 
9Gaunty TDRMThe Delivery Room I 2838   1:45.7  296.3 
10Ben JagoMSub 7 I 2836   1:45.8  295.7 
11Simon JonesMMAD I 2836   1:45.8  295.7 
12j.dMMAD II 2831   1:46.0  294.1 
13Nathaniel Wright TDRMThe Delivery Room I 2831   1:46.0  294.1 
14Clemens BMGermania I 2814   1:46.6  288.9 
15Giles Clarke (RLR)MRed Line Rowers I 2814   1:46.6  288.9 
16Rob PhillipsMSub 7 I 2812   1:46.7  288.2 
17Roy JonesMMAD II 2812   1:46.7  288.2 
18Casey ClarkeMSub 7 II 2807   1:46.9  286.7 
19Freddie H lwtmMAD I 2805   1:47.0  286.1 
20Craig HodgesMFitness Matters I 2799   1:47.2  284.3 
21Tim JonesMMAD II 2794   1:47.4  282.7 
22Justin Nickel FMmFitness Matters I 2793   1:47.4  282.4 
23yoskidaMThe Delivery Room I 2791   1:47.5  281.8 
24Jon MelsonMDLC Gidea Park I 2791   1:47.5  281.8 
25Bergur JensenmSub 7 I 2789   1:47.6  281.2 
26Mark MitchellmMAD II 2789   1:47.6  281.2 
27Ian WildeMSub 7 II 2785   1:47.7  280.0 
28BlanksbyFMMFitness Matters I 2781   1:47.9  278.8 
29Troy FrerichsMTeam Oarsome I 2781   1:47.9  278.8 
30Russell CarterMMAD III 2779   1:48.0  278.2 
31Paul NuttallMFitness Matters II 2755   1:48.9  271.1 
32Craig MumbymTeam Oarsome I 2755   1:48.9  271.1 
33Yannick HeratmGARAGEATHLETE I 2750   1:49.1  269.6 
34Rich DixonMSub 7 II 2748   1:49.2  269.0 
35Tony FaccipontiMThe Delivery Room II 2744   1:49.3  267.8 
36ESPRIT Joe LustigMESPRIT I 2743   1:49.4  267.5 
37Pete MarstonMMAD III 2737   1:49.6  265.8 
38Nick RockliffMTeam Oarsome I 2729   1:49.9  263.5 
39Schnitzel Von CrummMIndependent I 2727   1:50.0  262.9 
40Matt GillMSub 7 III 2725   1:50.1  262.3 
41Martin StillMSub 7 III 2721   1:50.3  261.1 
42Tako LootsmaMFitness Matters II 2721   1:50.3  261.1 
43Richard SAMThe Delivery Room II 2718   1:50.4  260.3 
44JerarnieMFitness Matters II 2696   1:51.3  254.0 
45Sjfrost1001MThe Delivery Room II 2695   1:51.3  253.7 
46Tim Jenns FMmFitness Matters II 2689   1:51.6  252.0 
47Asmund KarlsenMSub 7 III 2687   1:51.6  251.5 
48Matthew LeonardMFree Spirits I 2683   1:51.8  250.4 
49Jonty EyresMIsenhurst Rowers I 2683   1:51.8  250.4 
50Tony MaddocksMThe Delivery Room III 2682   1:51.9  250.1 
51ESPRIT Paul JohnsonmESPRIT I 2679   1:52.0  249.2 
52Alex Winser TDRmThe Delivery Room I 2677   1:52.1  248.7 
53Red RabbitMFirm Fitness I 2675   1:52.1  248.1 
54Philip HardyMRed Line Rowers I 2672   1:52.3  247.3 
55Graham ToddMTeam Oarsome I 2672   1:52.3  247.3 
56Bezza RLRmRed Line Rowers I 2672   1:52.3  247.3 
57Richard WildermMAD III 2668   1:52.4  246.2 
58MerciermFIRT I 2665   1:52.6  245.4 
59meurice robinson RLRmRed Line Rowers II 2661   1:52.7  244.3 
60John WalshMSub 7 IV 2659   1:52.8  243.7 
61Alastair Peake FMmFitness Matters III 2656   1:53.0  242.9 
62Dave ChmilowskyjMTeam Oarsome II 2650   1:53.2  241.2 
63BertrandmFIRT I 2648   1:53.3  240.7 
64Russell ChewieMSub 7 IV 2646   1:53.4  240.1 
65Luke HilgersMFitness Matters III 2645   1:53.4  239.9 
66tony walpoleMFitness Matters III 2641   1:53.6  238.8 
67Stuart KolbeMFitness Matters III 2641   1:53.6  238.8 
68Anna MuehleFGermania I 2639   1:53.7  238.2 
69Kay BieriMC2TweetCrew I 2639   1:53.7  238.2 
70Steven RichieMSub 7 IV 2637   1:53.8  237.7 
71Len OsbornMDiamonds I 2636   1:53.8  237.4 
72Bruce GuntherMGermania II 2635   1:53.9  237.2 
73RougeMGee Crew I 2632   1:54.0  236.4 
74Mike Pearce (MPx)MSub 7 V 2626   1:54.2  234.7 
75Sanjuan aip-perpignanMFIRT I 2625   1:54.3  234.5 
76Roger RogneMFitness Matters IV 2623   1:54.4  233.9 
77Richard PruceMSub 7 V 2619   1:54.5  232.9 
78Mattew James FullerMThe Delivery Room III 2614   1:54.8  231.5 
79Karis FrostFThe Delivery Room I 2608   1:55.0  229.9 
80Morgan McGrathFSub 7 I 2608   1:55.0  229.9 
81Ryan McCormack TDRMThe Delivery Room III 2608   1:55.0  229.9 
82B McAuleymFitness Matters IV 2605   1:55.2  229.2 
83John AdcockMErgo Ergo Sum I 2603   1:55.3  228.6 
84Eric AugustMSub 7 V 2602   1:55.3  228.4 
85Anna LwtfThe Delivery Room II 2597   1:55.5  227.0 
86Allan HallbergMForum Flyers I 2595   1:55.6  226.5 
87Sondre UndheimMFitness Matters IV 2589   1:55.9  225.0 
88Mike Channin (FS)MFree Spirits I 2585   1:56.1  223.9 
89Rowland Hills (RLR)MRed Line Rowers II 2580   1:56.3  222.6 
90Andy ColeMGee Crew I 2578   1:56.4  222.1 
91Jon GoodallMMAD III 2578   1:56.4  222.1 
92Ben JenkinsMFitness Matters IV 2578   1:56.4  222.1 
93Jon TysonMSub 7 VI 2575   1:56.5  221.3 
94Glynn PowellMSub 7 VI 2575   1:56.5  221.3 
95Saro MicalizziMRowPro Rowers I 2574   1:56.6  221.1 
96Richard SteventonMSub 7 VI 2573   1:56.6  220.8 
97Kevin HillmanMEmpty the Tanks I 2571   1:56.7  220.3 
98Mac McNelisMSub 7 VII 2570   1:56.7  220.0 
99Jon ColeMErgo Ergo Sum I 2570   1:56.7  220.0 
100Paul SandsMRed Line Rowers II 2568   1:56.8  219.5 
101Graham FrenchMIsenhurst Rowers I 2565   1:57.0  218.8 
102StJohn FordM Once We Were Tribesports I 2563   1:57.1  218.2 
103Marc WilsonmWhitby Friendship ARC I 2561   1:57.1  217.7 
104Paul 'Chicky' ChickMFitness Matters V 2561   1:57.1  217.7 
105fkoeneMFree Spirits I 2561   1:57.1  217.7 
106Laura TinglefFitness Matters I 2555   1:57.4  216.2 
107Paul MortonmSub 7 II 2553   1:57.5  215.7 
108patrice CORNUTmFIRT I 2551   1:57.6  215.2 
109Marc RONCAmFIRT II 2549   1:57.7  214.7 
110Sam BlytheMFitness Matters V 2549   1:57.7  214.7 
111Matthew TiltMFitness Matters V 2546   1:57.8  213.9 
112Graham HutchingsMRed Line Rowers II 2543   1:58.0  213.2 
113Richard MilnermRed Line Rowers III 2537   1:58.2  211.7 
114Joe LohmanMFree Spirits II 2535   1:58.3  211.2 
115Bill WakeleymRowPro Rowers I 2534   1:58.4  210.9 
116Richard WolfMForum Flyers I 2529   1:58.6  209.7 
117Matt.Mitchell.hwtMMAD IV 2526   1:58.8  208.9 
118Eich PeterMDiamonds I 2513   1:59.4  205.7 
119LiefcatMFree Spirits II 2512   1:59.4  205.5 
120Scott RoyalMFirm Fitness I 2503   1:59.9  203.3 
121Sean HearnmFirm Fitness I 2503   1:59.9  203.3 
122JC CrillyMSub 7 VII 2501   2:00.0  202.8 
123Tony PlettMThe Chain Pullers I 2498   2:00.1  202.1 
124Stephen Perkins FMMFitness Matters VI 2496   2:00.2  201.6 
125Brandon HeapsMSub 7 VII 2495   2:00.2  201.3 
126Jon P TaylormFree Spirits I 2494   2:00.3  201.1 
127Claire SowerbyFMAD I 2492   2:00.4  200.6 
128Will HaskellmForum Flyers I 2476   2:01.2  196.8 
129Rich InsleymThe Chain Pullers I 2475   2:01.2  196.5 
130Matt NewmanmTeam Oarsome II 2468   2:01.6  194.9 
131Paul Timmons FFCmFirm Fitness I 2461   2:01.9  193.2 
132Adam EshbornmSub 7 III 2460   2:02.0  193.0 
133Frank NoorlanderMForum Flyers I 2459   2:02.0  192.7 
134Andy LeemFitness Matters V 2453   2:02.3  191.3 
135AMNW Ian NorthcottMMercian Nordic Walking I 2452   2:02.3  191.1 
136Gordon UllahmC2TweetCrew I 2451   2:02.4  190.9 
137PongiMFitness Matters VI 2451   2:02.4  190.9 
138Cathy Lowe RimovFTeam JW I 2451   2:02.4  190.9 
139Liam BeatonMTeam Oarsome II 2447   2:02.6  189.9 
140Karl Hoods TDRmThe Delivery Room II 2445   2:02.7  189.5 
141Rhian Rudkin (MAD)FMAD II 2444   2:02.7  189.2 
142Sarita Kristina HansenfSub 7 II 2443   2:02.8  189.0 
143David KeckMFirm Fitness II 2443   2:02.8  189.0 
144Adam YalowichmFitness Matters VI 2442   2:02.9  188.8 
145Matt LawranceMFree Spirits II 2439   2:03.0  188.1 
146LauraH21 GhiòfThe Italian Team I 2439   2:03.0  188.1 
147Richard Campos (RLR)MRed Line Rowers III 2434   2:03.3  186.9 
148Tereza HorejsovaFTeam Oarsome I 2432   2:03.4  186.5 
149ESPRIT Adelle TudorFESPRIT I 2427   2:03.6  185.3 
150Steve MotznyMAge Without Limits I 2427   2:03.6  185.3 
151Gary SmithmIsenhurst Rowers I 2424   2:03.8  184.6 
152Angus WoodhamsMIsenhurst Rowers I 2412   2:04.4  181.9 
153Morgan McGrath SkiErgFSki Erg I 2408   2:04.6  181.0 
154LindsayhMForum Flyers II 2402   2:04.9  179.6 
155Barbara AproFRed Line Rowers I 2397   2:05.2  178.5 
156James ClarkeMFitness Matters VI 2394   2:05.3  177.9 
157Roger TiveyMIsenhurst Rowers II 2387   2:05.7  176.3 
158Jenni Crook FMFFitness Matters II 2386   2:05.7  176.1 
159Paul GouldMFree Spirits III 2386   2:05.7  176.1 
160Hanna NeugebauerFFitness Matters III 2383   2:05.9  175.4 
161Bill.SchmidtmTeam Oarsome II 2383   2:05.9  175.4 
162Andy FlewittMGee Crew I 2383   2:05.9  175.4 
163M D MItchellMErg365 I 2382   2:05.9  175.2 
164Mike ShillabeerMIsenhurst Rowers II 2379   2:06.1  174.5 
165Tracy Watkins RLRFRed Line Rowers II 2379   2:06.1  174.5 
166Louise Barber1409fFitness Matters IV 2378   2:06.2  174.3 
167Robert DykemIndependent I 2372   2:06.5  173.0 
168Vitor VilarMAge Without Limits I 2369   2:06.6  172.3 
169MBrownjohnmDiamonds I 2365   2:06.8  171.5 
170SpikemForum Flyers II 2362   2:07.0  170.8 
171davidmarksMPaddy Power I 2361   2:07.1  170.6 
172Tony LorrimermGee Crew I 2356   2:07.3  169.5 
173David SpeedMTeam Oarsome III 2355   2:07.4  169.3 
174Allen HMFree Spirits III 2353   2:07.5  168.9 
175Cat RimovFSub 7 III 2351   2:07.6  168.4 
176David PlumbmFree Spirits II 2349   2:07.7  168.0 
177Kevin LivesleyMThe Chain Pullers I 2349   2:07.7  168.0 
178James SlipetzMForum Flyers II 2347   2:07.8  167.6 
179Belinda TraceyFErgo Ergo Sum I 2346   2:07.9  167.4 
180.Jules BaileyFTeam Oarsome II 2345   2:07.9  167.2 
181Gwyn Samuel2MGee Crew II 2338   2:08.3  165.7 
182Samantha DoubtfireFSub 7 IV 2333   2:08.6  164.6 
183Natalie TrebilcockFGee Crew I 2321   2:09.3  162.1 
184Rick BaykomForum Flyers II 2316   2:09.5  161.0 
185Stacey DenyerFTeam Oarsome III 2315   2:09.6  160.8 
186David R. HerzMAge Without Limits I 2314   2:09.6  160.6 
187Steve OckerbyMForum Flyers III 2310   2:09.9  159.8 
188Rod Chinn mMAD IV 2301   2:10.4  157.9 
189Sue ElleryFIsenhurst Rowers I 2300   2:10.4  157.7 
190Tim MontogomeryMDiamonds I 2296   2:10.7  156.9 
191Nick CarapietmIsenhurst Rowers II 2288   2:11.1  155.3 
192NZ - Lisa BerrymanFTe Waka Aotearoa I 2258   2:12.9  149.2 
193Marie PageFRed Line Rowers III 2255   2:13.0  148.6 
194Debbie BarberFForum Flyers I 2254   2:13.1  148.4 
195Annette EdwardsFTeam Oarsome III 2252   2:13.2  148.1 
196Shiona Balfour FMfFitness Matters V 2216   2:15.4  141.1 
197Peter HawneyMGee Crew II 2214   2:15.5  140.7 
198Lesley DuffyFFree Spirits I 2209   2:15.8  139.7 
199Mark WilliamsMFirm Fitness II 2202   2:16.2  138.4 
200Anne NimmoFGee Crew II 2183   2:17.4  134.9 
201Ian NimmomGee Crew II 2183   2:17.4  134.9 
202Mark KaehlerMDiamonds II 2174   2:18.0  133.2 
203Zoe OsborneFIsenhurst Rowers II 2167   2:18.4  131.9 
204Jackie HicksFIndependent I 2164   2:18.6  131.4 
205AMNW Pauline DemelFMercian Nordic Walking I 2155   2:19.2  129.7 
206BeefMFirm Fitness II 2154   2:19.3  129.6 
207Erica GranucciFSub 7 V 2143   2:20.0  127.6 
208Graham WoodleyMForum Flyers III 2136   2:20.4  126.3 
209Ruud JackelMRowPro Rowers I 2130   2:20.8  125.3 
210Philip PricemFree Spirits III 2120   2:21.5  123.5 
211Susan YoungFSub 7 VI 2085   2:23.9  117.5 
212Gail McTFThe Chain Pullers I 2082   2:24.1  117.0 
213Ian BarnesMIndependent I 2071   2:24.9  115.1 
214L LindahlFFitness Matters VI 2071   2:24.9  115.1 
215clareburrellfFree Spirits II 2039   2:27.1  109.9 
216MuckolFDiamonds I 2023   2:28.3  107.3 
217Gel ForderfDiamonds II 2003   2:29.8  104.2 
218Wayne E. CalvertMDiamonds II 1999   2:30.1  103.5 
219Janet LawtonFFree Spirits III 1977   2:31.7  100.2 
220Fleur BlanfordfIsenhurst Rowers II 1974   2:32.0  99.7 
221Amon SUB7 SKI ERGfSki Erg I 1971   2:32.2  99.3 
222Judy WilmotFDiamonds II 1937   2:34.9  94.2 
223Dan LynchMSub 7 VIII 1936   2:35.0  94.1 
224lizh FFFForum Flyers II 1930   2:35.4  93.2 
225AMNWEsmeBfMercian Nordic Walking I 1924   2:35.9  92.3 
226Anna Rae GreenFForum Flyers III 1887   2:39.0  87.1 
227Roger BurrellmFree Spirits III 1797   2:46.9  75.2 
228KCFAge Without Limits I 1670   2:59.6  60.4 
229AMNWPatTFMercian Nordic Walking I 1407   3:33.2  36.1 
230AMNWSusanRichardsFMercian Nordic Walking I 1238   4:02.3  24.6 
231AMNWAnnMasonfMercian Nordic Walking II 1180   4:14.2  21.3 
232Rob McMichael (Dmnds)MDiamonds II 1000   5:00.0  13.0 
1
28 pts
Sub 7 I 2795.2m
Andrew Morley (H)
Ben Jago (H)
Rob Phillips (H)
Bergur Jensen (L)
Morgan McGrath (F)
2
27 pts
MAD I 2788.6m
Jack Trimble (H)
Chris Scott (H)
Simon Jones (H)
Freddie H lwt (L)
Claire Sowerby (F)
3
26 pts
Fitness Matters I 2768.2m
Adam Jones FM (H)
Craig Hodges (H)
BlanksbyFM (H)
Justin Nickel FM (L)
Laura Tingle (F)
4
25 pts
The Delivery Room I 2749m
Gaunty TDR (H)
Nathaniel Wright TDR (H)
yoskida (H)
Alex Winser TDR (L)
Karis Frost (F)
5
24 pts
MAD II 2734m
j.d (H)
Roy Jones (H)
Tim Jones (H)
Mark Mitchell (L)
Rhian Rudkin (MAD) (F)
6
23 pts
Red Line Rowers I 2682.6m
Giles Clarke (RLR) (H)
Philip Hardy (H)
Keith Darby (L)
Bezza RLR (L)
Barbara Apro (F)
7
22 pts
Team Oarsome I 2673.8m
Troy Frerichs (H)
Nick Rockliff (H)
Graham Todd (H)
Craig Mumby (L)
Tereza Horejsova (F)
8
21 pts
Sub 7 II 2667.2m
Casey Clarke (H)
Ian Wilde (H)
Rich Dixon (H)
Paul Morton (L)
Sarita Kristina Hansen (F)
9
20 pts
Fitness Matters II 2649.4m
Paul Nuttall (H)
Tako Lootsma (H)
Jerarnie (H)
Tim Jenns FM (L)
Jenni Crook FM (F)
10
19 pts
The Delivery Room II 2639.8m
Tony Facciponti (H)
Richard SA (H)
Sjfrost1001 (H)
Karl Hoods TDR (L)
Anna Lwt (F)
11
18 pts
Fitness Matters III 2593.2m
Luke Hilgers (H)
tony walpole (H)
Stuart Kolbe (H)
Alastair Peake FM (L)
Hanna Neugebauer (F)
12
17 pts
Sub 7 III 2588.8m
Matt Gill (H)
Martin Still (H)
Asmund Karlsen (H)
Adam Eshborn (L)
Cat Rimov (F)
13
16 pts
Fitness Matters IV 2554.6m
Roger Rogne (H)
Sondre Undheim (H)
Ben Jenkins (H)
B McAuley (L)
Louise Barber1409 (F)
14
15 pts
Red Line Rowers II 2546.2m
Rowland Hills (RLR) (H)
Paul Sands (H)
Graham Hutchings (H)
meurice robinson RLR (L)
Tracy Watkins RLR (F)
15
14 pts
Free Spirits I 2506.4m
Matthew Leonard (H)
Mike Channin (FS) (H)
fkoene (H)
Jon P Taylor (L)
Lesley Duffy (F)
16
13 pts
Isenhurst Rowers I 2476.8m
Jonty Eyres (H)
Graham French (H)
Angus Woodhams (H)
Gary Smith (L)
Sue Ellery (F)
17
12 pts
Fitness Matters V 2465m
Paul 'Chicky' Chick (H)
Sam Blythe (H)
Matthew Tilt (H)
Andy Lee (L)
Shiona Balfour FM (F)
18
11 pts
Forum Flyers I 2462.6m
Allan Hallberg (H)
Richard Wolf (H)
Frank Noorlander (H)
Will Haskell (L)
Debbie Barber (F)
19
10 pts
Team Oarsome II 2458.6m
Dave Chmilowskyj (H)
Liam Beaton (H)
Matt Newman (L)
Bill.Schmidt (L)
.Jules Bailey (F)
20
9 pts
Gee Crew I 2454m
Rouge (H)
Andy Cole (H)
Andy Flewitt (H)
Tony Lorrimer (L)
Natalie Trebilcock (F)
21
8 pts
Free Spirits II 2374.8m
Joe Lohman (H)
Liefcat (H)
Matt Lawrance (H)
David Plumb (L)
clareburrell (F)
22
7 pts
Fitness Matters VI 2370.8m
Stephen Perkins FM (H)
Pongi (H)
James Clarke (H)
Adam Yalowich (L)
L Lindahl (F)
23
6 pts
Diamonds I 2366.6m
Len Osborn (H)
Eich Peter (H)
Tim Montogomery (H)
MBrownjohn (L)
Muckol (F)
24
5 pts
Forum Flyers II 2271.4m
Lindsayh (H)
James Slipetz (H)
Spike (L)
Rick Bayko (L)
lizh FF (F)
25
4 pts
Isenhurst Rowers II 2239m
Roger Tivey (H)
Mike Shillabeer (H)
Nick Carapiet (L)
Fleur Blanford (L)
Zoe Osborne (F)
26
3 pts
Free Spirits III 2126.6m
Paul Gould (H)
Allen H (H)
Philip Price (L)
Roger Burrell (L)
Janet Lawton (F)
27
2 pts
Mercian Nordic Walking I 1835.2m
AMNW Ian Northcott (H)
AMNWEsmeB (L)
AMNW Pauline Demel (F)
AMNWPatT (F)
AMNWSusanRichards (F)
28
1 pt
Diamonds II 1822.6m
Mark Kaehler (H)
Wayne E. Calvert (H)
Rob McMichael (Dmnds) (H)
Gel Forder (L)
Judy Wilmot (F)
29Germania I2808.5m
Moritz BOCK (H)
Tobias Stöhr (H)
Clemens B (H)
Anna Muehle (F)
30DLC Gidea Park I2791m
Jon Melson (H)
 
31GARAGEATHLETE I2750m
Yannick Herat (L)
 
32MAD III2690.5m
Russell Carter (H)
Pete Marston (H)
Jon Goodall (H)
Richard Wilder (L)
33Te Waka Aotearoa I2639.5m
NZ - Andy Tomlinson (H)
NZ - Lisa Berryman (F)
 
34Germania II2635m
Bruce Gunther (H)
 
35The Delivery Room III2634.6m
Tony Maddocks (H)
Mattew James Fuller (H)
Ryan McCormack TDR (H)
 
36FIRT I2622.2m
Sanjuan aip-perpignan (H)
Mercier (L)
Bertrand (L)
patrice CORNUT (L)
37ESPRIT I2616.3m
ESPRIT Joe Lustig (H)
ESPRIT Paul Johnson (L)
ESPRIT Adelle Tudor (F)
 
38Empty the Tanks I2571m
Kevin Hillman (H)
 
39Sub 7 IV2568.7m
John Walsh (H)
Russell Chewie (H)
Steven Richie (H)
Samantha Doubtfire (F)
40 Once We Were Tribesports I2563m
StJohn Ford (H)
 
41Whitby Friendship ARC I2561m
Marc Wilson (L)
 
42FIRT II2549m
Marc RONCA (L)
 
43C2TweetCrew I2545m
Kay Bieri (H)
Gordon Ullah (L)
 
44Firm Fitness I2535.5m
Red Rabbit (H)
Scott Royal (H)
Sean Hearn (L)
Paul Timmons FFC (L)
45Sub 7 VII2522m
Mac McNelis (H)
JC Crilly (H)
Brandon Heaps (H)
 
46Ergo Ergo Sum I2506.3m
John Adcock (H)
Jon Cole (H)
Belinda Tracey (F)
 
47Sub 7 V2497.5m
Mike Pearce (MPx) (H)
Richard Pruce (H)
Eric August (H)
Erica Granucci (F)
48Sub 7 VI2452m
Jon Tyson (H)
Glynn Powell (H)
Richard Steventon (H)
Susan Young (F)
49Team JW I2451m
Cathy Lowe Rimov (F)
 
50The Italian Team I2439m
LauraH21 Ghiò (L)
 
51MAD IV2413.5m
Matt.Mitchell.hwt (H)
Rod Chinn (L)
 
52RowPro Rowers I2412.6m
Saro Micalizzi (H)
Ruud Jackel (H)
Bill Wakeley (L)
 
53Red Line Rowers III2408.6m
Richard Campos (RLR) (H)
Richard Milner (L)
Marie Page (F)
 
54Erg365 I2382m
M D MItchell (H)
 
55Paddy Power I2361m
davidmarks (H)
 
56The Chain Pullers I2351m
Tony Plett (H)
Kevin Livesley (H)
Rich Insley (L)
Gail McT (F)
57Independent I2333.5m
Schnitzel Von Crumm (H)
Ian Barnes (H)
Robert Dyke (L)
Jackie Hicks (F)
58Team Oarsome III2307.3m
David Speed (H)
Stacey Denyer (F)
Annette Edwards (F)
 
59Firm Fitness II2266.3m
David Keck (H)
Mark Williams (H)
Beef (H)
 
60Gee Crew II2229.5m
Gwyn Samuel2 (H)
Peter Hawney (H)
Ian Nimmo (L)
Anne Nimmo (F)
61Age Without Limits I2195m
Steve Motzny (H)
Vitor Vilar (H)
David R. Herz (H)
KC (F)
62Ski Erg I2189.5m
Amon SUB7 SKI ERG (L)
Morgan McGrath SkiErg (F)
 
63Forum Flyers III2111m
Steve Ockerby (H)
Graham Woodley (H)
Anna Rae Green (F)
 
64Sub 7 VIII1936m
Dan Lynch (H)
 
65Mercian Nordic Walking II1180m
AMNWAnnMason (L)
 

The Cross-Team Challenge is not supported or endorsed by Concept 2.
Site written by Daren Chandisingh. Please post any problems on the UK Concept 2 forum.

Valid XHTML 1.0 Transitional